sensor_id;sensor_type;location;lat;lon;timestamp;temperature;humidity
22112;DHT22;11222;50.872;4.312;2023-11-22T00:01:36;6.60;99.90
22112;DHT22;11222;50.872;4.312;2023-11-22T00:04:02;6.60;99.90
22112;DHT22;11222;50.872;4.312;2023-11-22T00:06:28;6.50;99.90
22112;DHT22;11222;50.872;4.312;2023-11-22T00:08:55;6.50;99.90
22112;DHT22;11222;50.872;4.312;2023-11-22T00:11:20;6.50;99.90
22112;DHT22;11222;50.872;4.312;2023-11-22T00:13:46;6.40;99.90
22112;DHT22;11222;50.872;4.312;2023-11-22T00:16:11;6.40;99.90
22112;DHT22;11222;50.872;4.312;2023-11-22T00:18:37;6.40;99.90
22112;DHT22;11222;50.872;4.312;2023-11-22T00:21:04;6.50;99.90
22112;DHT22;11222;50.872;4.312;2023-11-22T00:23:29;6.50;99.90
22112;DHT22;11222;50.872;4.312;2023-11-22T00:25:55;6.50;99.90
22112;DHT22;11222;50.872;4.312;2023-11-22T00:28:22;6.40;99.90
22112;DHT22;11222;50.872;4.312;2023-11-22T00:30:48;6.40;99.90
22112;DHT22;11222;50.872;4.312;2023-11-22T00:33:13;6.40;99.90
22112;DHT22;11222;50.872;4.312;2023-11-22T00:35:40;6.40;99.90
22112;DHT22;11222;50.872;4.312;2023-11-22T00:38:05;6.30;99.90
22112;DHT22;11222;50.872;4.312;2023-11-22T00:40:31;6.40;99.90
22112;DHT22;11222;50.872;4.312;2023-11-22T00:42:57;6.30;99.90
22112;DHT22;11222;50.872;4.312;2023-11-22T00:45:23;6.40;99.90
22112;DHT22;11222;50.872;4.312;2023-11-22T00:47:49;6.30;99.90
22112;DHT22;11222;50.872;4.312;2023-11-22T00:50:15;6.30;99.90
22112;DHT22;11222;50.872;4.312;2023-11-22T00:52:47;6.30;99.90
22112;DHT22;11222;50.872;4.312;2023-11-22T00:55:13;6.30;99.90
22112;DHT22;11222;50.872;4.312;2023-11-22T00:57:39;6.20;99.90
22112;DHT22;11222;50.872;4.312;2023-11-22T01:00:05;6.20;99.90
22112;DHT22;11222;50.872;4.312;2023-11-22T01:02:33;6.30;99.90
22112;DHT22;11222;50.872;4.312;2023-11-22T01:04:58;6.30;99.90
22112;DHT22;11222;50.872;4.312;2023-11-22T01:07:24;6.30;99.90
22112;DHT22;11222;50.872;4.312;2023-11-22T01:09:49;6.50;99.90
22112;DHT22;11222;50.872;4.312;2023-11-22T01:12:15;6.50;99.90
22112;DHT22;11222;50.872;4.312;2023-11-22T01:14:40;6.40;99.90
22112;DHT22;11222;50.872;4.312;2023-11-22T01:17:06;6.30;99.90
22112;DHT22;11222;50.872;4.312;2023-11-22T01:19:32;6.40;99.90
22112;DHT22;11222;50.872;4.312;2023-11-22T01:21:57;6.50;99.90
22112;DHT22;11222;50.872;4.312;2023-11-22T01:24:23;6.60;99.90
22112;DHT22;11222;50.872;4.312;2023-11-22T01:26:48;6.50;99.90
22112;DHT22;11222;50.872;4.312;2023-11-22T01:29:14;6.40;99.90
22112;DHT22;11222;50.872;4.312;2023-11-22T01:31:40;6.40;99.90
22112;DHT22;11222;50.872;4.312;2023-11-22T01:34:07;6.30;99.90
22112;DHT22;11222;50.872;4.312;2023-11-22T01:36:32;6.30;99.90
22112;DHT22;11222;50.872;4.312;2023-11-22T01:38:58;6.30;99.90
22112;DHT22;11222;50.872;4.312;2023-11-22T01:41:23;6.30;99.90
22112;DHT22;11222;50.872;4.312;2023-11-22T01:43:49;6.40;99.90
22112;DHT22;11222;50.872;4.312;2023-11-22T01:46:22;6.40;99.90
22112;DHT22;11222;50.872;4.312;2023-11-22T01:48:49;6.50;99.90
22112;DHT22;11222;50.872;4.312;2023-11-22T01:51:14;6.40;99.90
22112;DHT22;11222;50.872;4.312;2023-11-22T01:53:40;6.50;99.90
22112;DHT22;11222;50.872;4.312;2023-11-22T01:56:06;6.50;99.90
22112;DHT22;11222;50.872;4.312;2023-11-22T01:58:31;6.40;99.90
22112;DHT22;11222;50.872;4.312;2023-11-22T02:00:57;6.40;99.90
22112;DHT22;11222;50.872;4.312;2023-11-22T02:03:23;6.50;99.90
22112;DHT22;11222;50.872;4.312;2023-11-22T02:05:49;6.50;99.90
22112;DHT22;11222;50.872;4.312;2023-11-22T02:08:15;6.40;99.90
22112;DHT22;11222;50.872;4.312;2023-11-22T02:10:41;6.30;99.90
22112;DHT22;11222;50.872;4.312;2023-11-22T02:13:07;6.40;99.90
22112;DHT22;11222;50.872;4.312;2023-11-22T02:15:36;6.30;99.90
22112;DHT22;11222;50.872;4.312;2023-11-22T02:18:02;6.30;99.90
22112;DHT22;11222;50.872;4.312;2023-11-22T02:20:28;6.20;99.90
22112;DHT22;11222;50.872;4.312;2023-11-22T02:22:54;6.00;99.90
22112;DHT22;11222;50.872;4.312;2023-11-22T02:25:19;6.00;99.90
22112;DHT22;11222;50.872;4.312;2023-11-22T02:27:45;6.20;99.90
22112;DHT22;11222;50.872;4.312;2023-11-22T02:30:11;6.10;99.90
22112;DHT22;11222;50.872;4.312;2023-11-22T02:32:36;6.10;99.90
22112;DHT22;11222;50.872;4.312;2023-11-22T02:35:02;6.00;99.90
22112;DHT22;11222;50.872;4.312;2023-11-22T02:37:32;6.00;99.90
22112;DHT22;11222;50.872;4.312;2023-11-22T02:42:38;6.00;99.90
22112;DHT22;11222;50.872;4.312;2023-11-22T02:45:04;6.00;99.90
22112;DHT22;11222;50.872;4.312;2023-11-22T02:47:31;6.10;99.90
22112;DHT22;11222;50.872;4.312;2023-11-22T02:49:56;6.20;99.90
22112;DHT22;11222;50.872;4.312;2023-11-22T02:52:22;6.20;99.90
22112;DHT22;11222;50.872;4.312;2023-11-22T02:54:49;6.30;99.90
22112;DHT22;11222;50.872;4.312;2023-11-22T02:57:15;6.40;99.90
22112;DHT22;11222;50.872;4.312;2023-11-22T02:59:43;6.40;99.90
22112;DHT22;11222;50.872;4.312;2023-11-22T03:02:09;6.30;99.90
22112;DHT22;11222;50.872;4.312;2023-11-22T03:04:35;6.30;99.90
22112;DHT22;11222;50.872;4.312;2023-11-22T03:07:01;6.30;99.90
22112;DHT22;11222;50.872;4.312;2023-11-22T03:09:26;6.30;99.90
22112;DHT22;11222;50.872;4.312;2023-11-22T03:11:52;6.30;99.90
22112;DHT22;11222;50.872;4.312;2023-11-22T03:14:17;6.30;99.90
22112;DHT22;11222;50.872;4.312;2023-11-22T03:16:44;6.20;99.90
22112;DHT22;11222;50.872;4.312;2023-11-22T03:19:10;6.00;99.90
22112;DHT22;11222;50.872;4.312;2023-11-22T03:21:35;6.00;99.90
22112;DHT22;11222;50.872;4.312;2023-11-22T03:24:01;6.00;99.90
22112;DHT22;11222;50.872;4.312;2023-11-22T03:26:29;6.10;99.90
22112;DHT22;11222;50.872;4.312;2023-11-22T03:28:55;6.10;99.90
22112;DHT22;11222;50.872;4.312;2023-11-22T03:31:20;6.10;99.90
22112;DHT22;11222;50.872;4.312;2023-11-22T03:33:46;6.00;99.90
22112;DHT22;11222;50.872;4.312;2023-11-22T03:36:12;5.90;99.90
22112;DHT22;11222;50.872;4.312;2023-11-22T03:38:38;6.00;99.90
22112;DHT22;11222;50.872;4.312;2023-11-22T03:41:05;5.90;99.90
22112;DHT22;11222;50.872;4.312;2023-11-22T03:43:30;5.90;99.90
22112;DHT22;11222;50.872;4.312;2023-11-22T03:45:56;5.90;99.90
22112;DHT22;11222;50.872;4.312;2023-11-22T03:48:21;5.90;99.90
22112;DHT22;11222;50.872;4.312;2023-11-22T03:50:51;6.00;99.90
22112;DHT22;11222;50.872;4.312;2023-11-22T03:53:17;6.00;99.90
22112;DHT22;11222;50.872;4.312;2023-11-22T03:55:42;6.00;99.90
22112;DHT22;11222;50.872;4.312;2023-11-22T03:58:08;6.10;99.90
22112;DHT22;11222;50.872;4.312;2023-11-22T04:00:33;6.10;99.90
22112;DHT22;11222;50.872;4.312;2023-11-22T04:02:59;6.00;99.90
22112;DHT22;11222;50.872;4.312;2023-11-22T04:05:27;5.90;99.90
22112;DHT22;11222;50.872;4.312;2023-11-22T04:07:52;5.90;99.90
22112;DHT22;11222;50.872;4.312;2023-11-22T04:10:18;5.80;99.90
22112;DHT22;11222;50.872;4.312;2023-11-22T04:12:44;5.90;99.90
22112;DHT22;11222;50.872;4.312;2023-11-22T04:15:11;5.90;99.90
22112;DHT22;11222;50.872;4.312;2023-11-22T04:17:37;5.70;99.90
22112;DHT22;11222;50.872;4.312;2023-11-22T04:20:06;5.60;99.90
22112;DHT22;11222;50.872;4.312;2023-11-22T04:22:36;5.70;99.90
22112;DHT22;11222;50.872;4.312;2023-11-22T04:25:02;5.70;99.90
22112;DHT22;11222;50.872;4.312;2023-11-22T04:27:27;5.70;99.90
22112;DHT22;11222;50.872;4.312;2023-11-22T04:29:53;5.60;99.90
22112;DHT22;11222;50.872;4.312;2023-11-22T04:32:18;5.50;99.90
22112;DHT22;11222;50.872;4.312;2023-11-22T04:34:44;5.60;99.90
22112;DHT22;11222;50.872;4.312;2023-11-22T04:37:09;5.70;99.90
22112;DHT22;11222;50.872;4.312;2023-11-22T04:39:35;5.80;99.90
22112;DHT22;11222;50.872;4.312;2023-11-22T04:42:01;5.70;99.90
22112;DHT22;11222;50.872;4.312;2023-11-22T04:44:26;5.70;99.90
22112;DHT22;11222;50.872;4.312;2023-11-22T04:46:52;5.80;99.90
22112;DHT22;11222;50.872;4.312;2023-11-22T04:49:17;5.80;99.90
22112;DHT22;11222;50.872;4.312;2023-11-22T04:51:43;5.80;99.90
22112;DHT22;11222;50.872;4.312;2023-11-22T04:54:11;5.90;99.90
22112;DHT22;11222;50.872;4.312;2023-11-22T04:56:36;5.90;99.90
22112;DHT22;11222;50.872;4.312;2023-11-22T04:59:02;6.10;99.90
22112;DHT22;11222;50.872;4.312;2023-11-22T05:01:32;6.00;99.90
22112;DHT22;11222;50.872;4.312;2023-11-22T05:03:57;6.00;99.90
22112;DHT22;11222;50.872;4.312;2023-11-22T05:06:24;6.00;99.90
22112;DHT22;11222;50.872;4.312;2023-11-22T05:08:49;6.10;99.90
22112;DHT22;11222;50.872;4.312;2023-11-22T05:11:15;6.10;99.90
22112;DHT22;11222;50.872;4.312;2023-11-22T05:13:43;6.20;99.90
22112;DHT22;11222;50.872;4.312;2023-11-22T05:16:09;6.20;99.90
22112;DHT22;11222;50.872;4.312;2023-11-22T05:18:34;6.10;99.90
22112;DHT22;11222;50.872;4.312;2023-11-22T05:21:01;6.00;99.90
22112;DHT22;11222;50.872;4.312;2023-11-22T05:23:28;6.10;99.90
22112;DHT22;11222;50.872;4.312;2023-11-22T05:25:54;6.10;99.90
22112;DHT22;11222;50.872;4.312;2023-11-22T05:28:19;6.20;99.90
22112;DHT22;11222;50.872;4.312;2023-11-22T05:30:45;6.20;99.90
22112;DHT22;11222;50.872;4.312;2023-11-22T05:33:11;6.20;99.90
22112;DHT22;11222;50.872;4.312;2023-11-22T05:35:37;6.20;99.90
22112;DHT22;11222;50.872;4.312;2023-11-22T05:38:02;6.20;99.90
22112;DHT22;11222;50.872;4.312;2023-11-22T05:40:28;6.20;99.90
22112;DHT22;11222;50.872;4.312;2023-11-22T05:42:53;6.20;99.90
22112;DHT22;11222;50.872;4.312;2023-11-22T05:45:19;6.20;99.90
22112;DHT22;11222;50.872;4.312;2023-11-22T05:47:44;6.40;99.90
22112;DHT22;11222;50.872;4.312;2023-11-22T05:50:10;6.40;99.90
22112;DHT22;11222;50.872;4.312;2023-11-22T05:52:35;6.40;99.90
22112;DHT22;11222;50.872;4.312;2023-11-22T05:55:01;6.40;99.90
22112;DHT22;11222;50.872;4.312;2023-11-22T05:57:29;6.40;99.90
22112;DHT22;11222;50.872;4.312;2023-11-22T05:59:56;6.40;99.90
22112;DHT22;11222;50.872;4.312;2023-11-22T06:02:22;6.50;99.90
22112;DHT22;11222;50.872;4.312;2023-11-22T06:04:47;6.60;99.90
22112;DHT22;11222;50.872;4.312;2023-11-22T06:07:13;6.70;99.90
22112;DHT22;11222;50.872;4.312;2023-11-22T06:09:38;6.70;99.90
22112;DHT22;11222;50.872;4.312;2023-11-22T06:12:05;6.60;99.90
22112;DHT22;11222;50.872;4.312;2023-11-22T06:14:31;6.50;99.90
22112;DHT22;11222;50.872;4.312;2023-11-22T06:16:56;6.30;99.90
22112;DHT22;11222;50.872;4.312;2023-11-22T06:19:22;6.20;99.90
22112;DHT22;11222;50.872;4.312;2023-11-22T06:21:48;6.30;99.90
22112;DHT22;11222;50.872;4.312;2023-11-22T06:24:13;6.50;99.90
22112;DHT22;11222;50.872;4.312;2023-11-22T06:26:44;6.50;99.90
22112;DHT22;11222;50.872;4.312;2023-11-22T06:29:12;6.40;99.90
22112;DHT22;11222;50.872;4.312;2023-11-22T06:31:38;6.50;99.90
22112;DHT22;11222;50.872;4.312;2023-11-22T06:34:04;6.50;99.90
22112;DHT22;11222;50.872;4.312;2023-11-22T06:36:29;6.50;99.90
22112;DHT22;11222;50.872;4.312;2023-11-22T06:38:55;6.60;99.90
22112;DHT22;11222;50.872;4.312;2023-11-22T06:41:20;6.40;99.90
22112;DHT22;11222;50.872;4.312;2023-11-22T06:43:50;6.50;99.90
22112;DHT22;11222;50.872;4.312;2023-11-22T06:46:15;6.60;99.90
22112;DHT22;11222;50.872;4.312;2023-11-22T06:48:43;6.70;99.90
22112;DHT22;11222;50.872;4.312;2023-11-22T06:51:09;6.70;99.90
22112;DHT22;11222;50.872;4.312;2023-11-22T06:53:35;6.60;99.90
22112;DHT22;11222;50.872;4.312;2023-11-22T06:56:01;6.70;99.90
22112;DHT22;11222;50.872;4.312;2023-11-22T06:58:26;6.60;99.90
22112;DHT22;11222;50.872;4.312;2023-11-22T07:00:52;6.70;99.90
22112;DHT22;11222;50.872;4.312;2023-11-22T07:03:17;6.50;99.90
22112;DHT22;11222;50.872;4.312;2023-11-22T07:05:43;6.50;99.90
22112;DHT22;11222;50.872;4.312;2023-11-22T07:08:09;6.60;99.90
22112;DHT22;11222;50.872;4.312;2023-11-22T07:10:36;6.70;99.90
22112;DHT22;11222;50.872;4.312;2023-11-22T07:13:02;6.70;99.90
22112;DHT22;11222;50.872;4.312;2023-11-22T07:15:27;6.60;99.90
22112;DHT22;11222;50.872;4.312;2023-11-22T07:17:53;6.80;99.90
22112;DHT22;11222;50.872;4.312;2023-11-22T07:20:19;6.80;99.90
22112;DHT22;11222;50.872;4.312;2023-11-22T07:22:46;6.90;99.90
22112;DHT22;11222;50.872;4.312;2023-11-22T07:25:11;6.90;99.90
22112;DHT22;11222;50.872;4.312;2023-11-22T07:27:46;7.10;99.90
22112;DHT22;11222;50.872;4.312;2023-11-22T07:30:12;6.90;99.90
22112;DHT22;11222;50.872;4.312;2023-11-22T07:32:39;7.00;99.90
22112;DHT22;11222;50.872;4.312;2023-11-22T07:35:05;6.90;99.90
22112;DHT22;11222;50.872;4.312;2023-11-22T07:37:31;6.70;99.90
22112;DHT22;11222;50.872;4.312;2023-11-22T07:39:57;6.50;99.90
22112;DHT22;11222;50.872;4.312;2023-11-22T07:42:22;6.50;99.90
22112;DHT22;11222;50.872;4.312;2023-11-22T07:44:48;6.70;99.90
22112;DHT22;11222;50.872;4.312;2023-11-22T07:47:21;6.80;99.90
22112;DHT22;11222;50.872;4.312;2023-11-22T07:49:48;7.00;99.90
22112;DHT22;11222;50.872;4.312;2023-11-22T07:52:14;7.10;99.90
22112;DHT22;11222;50.872;4.312;2023-11-22T07:54:39;7.20;99.90
22112;DHT22;11222;50.872;4.312;2023-11-22T07:57:06;7.10;99.90
22112;DHT22;11222;50.872;4.312;2023-11-22T07:59:32;6.90;99.90
22112;DHT22;11222;50.872;4.312;2023-11-22T08:01:58;6.70;99.90
22112;DHT22;11222;50.872;4.312;2023-11-22T08:04:23;6.90;99.90
22112;DHT22;11222;50.872;4.312;2023-11-22T08:06:50;6.90;99.90
22112;DHT22;11222;50.872;4.312;2023-11-22T08:09:16;6.90;99.90
22112;DHT22;11222;50.872;4.312;2023-11-22T08:11:42;6.80;99.90
22112;DHT22;11222;50.872;4.312;2023-11-22T08:14:08;6.90;99.90
22112;DHT22;11222;50.872;4.312;2023-11-22T08:16:34;7.10;99.90
22112;DHT22;11222;50.872;4.312;2023-11-22T08:19:04;7.30;99.90
22112;DHT22;11222;50.872;4.312;2023-11-22T08:21:30;7.40;99.90
22112;DHT22;11222;50.872;4.312;2023-11-22T08:23:56;7.50;99.90
22112;DHT22;11222;50.872;4.312;2023-11-22T08:26:21;7.20;99.90
22112;DHT22;11222;50.872;4.312;2023-11-22T08:28:47;7.20;99.90
22112;DHT22;11222;50.872;4.312;2023-11-22T08:31:12;7.00;99.90
22112;DHT22;11222;50.872;4.312;2023-11-22T08:33:38;7.00;99.90
22112;DHT22;11222;50.872;4.312;2023-11-22T08:36:07;7.10;99.90
22112;DHT22;11222;50.872;4.312;2023-11-22T08:38:34;7.20;99.90
22112;DHT22;11222;50.872;4.312;2023-11-22T08:41:03;7.20;99.90
22112;DHT22;11222;50.872;4.312;2023-11-22T08:43:31;7.10;99.90
22112;DHT22;11222;50.872;4.312;2023-11-22T08:45:57;6.80;99.90
22112;DHT22;11222;50.872;4.312;2023-11-22T08:48:23;6.90;99.90
22112;DHT22;11222;50.872;4.312;2023-11-22T08:50:49;7.00;99.90
22112;DHT22;11222;50.872;4.312;2023-11-22T08:53:15;7.10;99.90
22112;DHT22;11222;50.872;4.312;2023-11-22T08:55:40;7.10;99.90
22112;DHT22;11222;50.872;4.312;2023-11-22T08:58:10;7.10;99.90
22112;DHT22;11222;50.872;4.312;2023-11-22T09:00:35;7.20;99.90
22112;DHT22;11222;50.872;4.312;2023-11-22T09:03:01;7.30;99.90
22112;DHT22;11222;50.872;4.312;2023-11-22T09:05:28;7.40;99.90
22112;DHT22;11222;50.872;4.312;2023-11-22T09:07:54;7.50;99.90
22112;DHT22;11222;50.872;4.312;2023-11-22T09:10:21;7.60;99.90
22112;DHT22;11222;50.872;4.312;2023-11-22T09:12:47;7.70;99.90
22112;DHT22;11222;50.872;4.312;2023-11-22T09:15:13;7.70;99.90
22112;DHT22;11222;50.872;4.312;2023-11-22T09:17:43;7.60;99.90
22112;DHT22;11222;50.872;4.312;2023-11-22T09:20:09;7.50;99.90
22112;DHT22;11222;50.872;4.312;2023-11-22T09:22:41;7.60;99.90
22112;DHT22;11222;50.872;4.312;2023-11-22T09:25:09;7.60;99.90
22112;DHT22;11222;50.872;4.312;2023-11-22T09:27:36;7.70;99.90
22112;DHT22;11222;50.872;4.312;2023-11-22T09:30:03;7.80;99.90
22112;DHT22;11222;50.872;4.312;2023-11-22T09:32:29;7.80;99.90
22112;DHT22;11222;50.872;4.312;2023-11-22T09:34:54;7.80;99.90
22112;DHT22;11222;50.872;4.312;2023-11-22T09:37:23;7.80;99.90
22112;DHT22;11222;50.872;4.312;2023-11-22T09:39:49;7.90;99.90
22112;DHT22;11222;50.872;4.312;2023-11-22T09:42:15;7.90;99.90
22112;DHT22;11222;50.872;4.312;2023-11-22T09:44:41;7.80;99.90
22112;DHT22;11222;50.872;4.312;2023-11-22T09:47:06;7.90;99.90
22112;DHT22;11222;50.872;4.312;2023-11-22T09:49:32;8.00;99.90
22112;DHT22;11222;50.872;4.312;2023-11-22T09:52:01;8.10;99.90
22112;DHT22;11222;50.872;4.312;2023-11-22T09:54:28;8.00;99.90
22112;DHT22;11222;50.872;4.312;2023-11-22T09:56:56;8.00;99.90
22112;DHT22;11222;50.872;4.312;2023-11-22T09:59:22;7.90;99.90
22112;DHT22;11222;50.872;4.312;2023-11-22T10:01:48;7.90;99.90
22112;DHT22;11222;50.872;4.312;2023-11-22T10:04:14;8.00;99.90
22112;DHT22;11222;50.872;4.312;2023-11-22T10:06:40;8.20;99.90
22112;DHT22;11222;50.872;4.312;2023-11-22T10:09:11;8.40;99.90
22112;DHT22;11222;50.872;4.312;2023-11-22T10:11:39;8.50;99.90
22112;DHT22;11222;50.872;4.312;2023-11-22T10:14:09;8.60;99.90
22112;DHT22;11222;50.872;4.312;2023-11-22T10:16:34;8.70;99.90
22112;DHT22;11222;50.872;4.312;2023-11-22T10:19:00;8.80;99.90
22112;DHT22;11222;50.872;4.312;2023-11-22T10:21:26;8.90;99.90
22112;DHT22;11222;50.872;4.312;2023-11-22T10:23:54;9.00;99.90
22112;DHT22;11222;50.872;4.312;2023-11-22T10:26:21;9.00;99.90
22112;DHT22;11222;50.872;4.312;2023-11-22T10:28:51;9.10;99.90
22112;DHT22;11222;50.872;4.312;2023-11-22T10:31:18;9.10;99.90
22112;DHT22;11222;50.872;4.312;2023-11-22T10:33:44;9.10;99.90
22112;DHT22;11222;50.872;4.312;2023-11-22T10:36:10;9.10;99.90
22112;DHT22;11222;50.872;4.312;2023-11-22T10:38:36;8.90;99.90
22112;DHT22;11222;50.872;4.312;2023-11-22T10:41:05;8.90;99.90
22112;DHT22;11222;50.872;4.312;2023-11-22T10:43:30;9.10;99.90
22112;DHT22;11222;50.872;4.312;2023-11-22T10:46:01;9.10;99.90
22112;DHT22;11222;50.872;4.312;2023-11-22T10:48:27;8.90;99.90
22112;DHT22;11222;50.872;4.312;2023-11-22T10:50:55;8.80;99.90
22112;DHT22;11222;50.872;4.312;2023-11-22T10:53:22;9.10;99.90
22112;DHT22;11222;50.872;4.312;2023-11-22T10:55:57;9.20;99.90
22112;DHT22;11222;50.872;4.312;2023-11-22T10:58:24;9.10;99.90
22112;DHT22;11222;50.872;4.312;2023-11-22T11:00:53;9.20;99.90
22112;DHT22;11222;50.872;4.312;2023-11-22T11:03:20;9.10;99.90
22112;DHT22;11222;50.872;4.312;2023-11-22T11:05:50;9.10;99.90
22112;DHT22;11222;50.872;4.312;2023-11-22T11:08:17;9.10;99.90
22112;DHT22;11222;50.872;4.312;2023-11-22T11:10:45;8.90;99.90
22112;DHT22;11222;50.872;4.312;2023-11-22T11:13:12;8.80;99.90
22112;DHT22;11222;50.872;4.312;2023-11-22T11:15:39;8.70;99.90
22112;DHT22;11222;50.872;4.312;2023-11-22T11:18:07;8.70;99.90
22112;DHT22;11222;50.872;4.312;2023-11-22T11:23:19;8.70;99.90
22112;DHT22;11222;50.872;4.312;2023-11-22T11:25:58;8.60;99.90
22112;DHT22;11222;50.872;4.312;2023-11-22T11:28:28;8.80;99.90
22112;DHT22;11222;50.872;4.312;2023-11-22T11:31:06;9.10;99.90
22112;DHT22;11222;50.872;4.312;2023-11-22T11:33:32;9.40;99.90
22112;DHT22;11222;50.872;4.312;2023-11-22T11:35:58;9.30;99.90
22112;DHT22;11222;50.872;4.312;2023-11-22T11:38:32;9.00;99.90
22112;DHT22;11222;50.872;4.312;2023-11-22T11:41:06;8.90;99.90
22112;DHT22;11222;50.872;4.312;2023-11-22T11:43:42;8.70;99.90
22112;DHT22;11222;50.872;4.312;2023-11-22T11:46:10;8.70;99.90
22112;DHT22;11222;50.872;4.312;2023-11-22T11:48:35;8.70;99.90
22112;DHT22;11222;50.872;4.312;2023-11-22T11:51:01;8.70;99.90
22112;DHT22;11222;50.872;4.312;2023-11-22T11:53:27;8.70;99.90
22112;DHT22;11222;50.872;4.312;2023-11-22T11:55:53;8.90;99.90
22112;DHT22;11222;50.872;4.312;2023-11-22T11:58:19;8.90;99.90
22112;DHT22;11222;50.872;4.312;2023-11-22T12:00:45;9.00;99.90
22112;DHT22;11222;50.872;4.312;2023-11-22T12:03:10;9.00;99.90
22112;DHT22;11222;50.872;4.312;2023-11-22T12:05:36;9.10;99.90
22112;DHT22;11222;50.872;4.312;2023-11-22T12:08:02;9.10;99.90
22112;DHT22;11222;50.872;4.312;2023-11-22T12:10:28;9.20;99.90
22112;DHT22;11222;50.872;4.312;2023-11-22T12:12:54;9.50;99.90
22112;DHT22;11222;50.872;4.312;2023-11-22T12:15:19;9.60;99.90
22112;DHT22;11222;50.872;4.312;2023-11-22T12:17:47;9.70;99.90
22112;DHT22;11222;50.872;4.312;2023-11-22T12:20:15;9.60;99.90
22112;DHT22;11222;50.872;4.312;2023-11-22T12:22:43;9.50;99.90
22112;DHT22;11222;50.872;4.312;2023-11-22T12:25:10;9.50;99.90
22112;DHT22;11222;50.872;4.312;2023-11-22T12:27:38;9.40;99.90
22112;DHT22;11222;50.872;4.312;2023-11-22T12:30:04;9.10;99.90
22112;DHT22;11222;50.872;4.312;2023-11-22T12:32:30;8.90;99.90
22112;DHT22;11222;50.872;4.312;2023-11-22T12:34:55;8.90;99.90
22112;DHT22;11222;50.872;4.312;2023-11-22T12:37:21;8.90;99.90
22112;DHT22;11222;50.872;4.312;2023-11-22T12:39:50;9.10;99.90
22112;DHT22;11222;50.872;4.312;2023-11-22T12:42:17;9.00;99.90
22112;DHT22;11222;50.872;4.312;2023-11-22T12:44:47;8.90;99.90
22112;DHT22;11222;50.872;4.312;2023-11-22T12:47:13;8.90;99.90
22112;DHT22;11222;50.872;4.312;2023-11-22T12:49:44;8.70;99.90
22112;DHT22;11222;50.872;4.312;2023-11-22T12:52:12;8.60;99.90
22112;DHT22;11222;50.872;4.312;2023-11-22T12:54:39;8.60;99.90
22112;DHT22;11222;50.872;4.312;2023-11-22T12:57:09;8.50;99.90
22112;DHT22;11222;50.872;4.312;2023-11-22T12:59:35;8.60;99.90
22112;DHT22;11222;50.872;4.312;2023-11-22T13:02:01;8.60;99.90
22112;DHT22;11222;50.872;4.312;2023-11-22T13:04:27;8.70;99.90
22112;DHT22;11222;50.872;4.312;2023-11-22T13:06:54;8.50;99.90
22112;DHT22;11222;50.872;4.312;2023-11-22T13:09:20;8.50;99.90
22112;DHT22;11222;50.872;4.312;2023-11-22T13:11:45;8.40;99.90
22112;DHT22;11222;50.872;4.312;2023-11-22T13:14:12;8.40;99.90
22112;DHT22;11222;50.872;4.312;2023-11-22T13:16:39;8.40;99.90
22112;DHT22;11222;50.872;4.312;2023-11-22T13:19:05;8.40;99.90
22112;DHT22;11222;50.872;4.312;2023-11-22T13:21:31;8.20;99.90
22112;DHT22;11222;50.872;4.312;2023-11-22T13:23:57;8.30;99.90
22112;DHT22;11222;50.872;4.312;2023-11-22T13:26:24;8.20;99.90
22112;DHT22;11222;50.872;4.312;2023-11-22T13:28:51;8.20;99.90
22112;DHT22;11222;50.872;4.312;2023-11-22T13:31:17;8.20;99.90
22112;DHT22;11222;50.872;4.312;2023-11-22T13:33:43;8.20;99.90
22112;DHT22;11222;50.872;4.312;2023-11-22T13:36:09;8.30;99.90
22112;DHT22;11222;50.872;4.312;2023-11-22T13:38:35;8.40;99.90
22112;DHT22;11222;50.872;4.312;2023-11-22T13:41:02;8.40;99.90
22112;DHT22;11222;50.872;4.312;2023-11-22T13:43:27;8.50;99.90
22112;DHT22;11222;50.872;4.312;2023-11-22T13:45:53;8.50;99.90
22112;DHT22;11222;50.872;4.312;2023-11-22T13:48:19;8.50;99.90
22112;DHT22;11222;50.872;4.312;2023-11-22T13:50:44;8.50;99.90
22112;DHT22;11222;50.872;4.312;2023-11-22T13:53:10;8.50;99.90
22112;DHT22;11222;50.872;4.312;2023-11-22T13:55:36;8.50;99.90
22112;DHT22;11222;50.872;4.312;2023-11-22T13:58:02;8.50;99.90
22112;DHT22;11222;50.872;4.312;2023-11-22T14:00:29;8.50;99.90
22112;DHT22;11222;50.872;4.312;2023-11-22T14:02:58;8.30;99.90
22112;DHT22;11222;50.872;4.312;2023-11-22T14:05:30;8.30;99.90
22112;DHT22;11222;50.872;4.312;2023-11-22T14:07:56;8.30;99.90
22112;DHT22;11222;50.872;4.312;2023-11-22T14:10:22;8.30;99.90
22112;DHT22;11222;50.872;4.312;2023-11-22T14:12:48;8.30;99.90
22112;DHT22;11222;50.872;4.312;2023-11-22T14:15:13;8.40;99.90
22112;DHT22;11222;50.872;4.312;2023-11-22T14:17:39;8.40;99.90
22112;DHT22;11222;50.872;4.312;2023-11-22T14:20:09;8.40;99.90
22112;DHT22;11222;50.872;4.312;2023-11-22T14:22:35;8.40;99.90
22112;DHT22;11222;50.872;4.312;2023-11-22T14:25:01;8.50;99.90
22112;DHT22;11222;50.872;4.312;2023-11-22T14:27:27;8.60;99.90
22112;DHT22;11222;50.872;4.312;2023-11-22T14:29:55;8.70;99.90
22112;DHT22;11222;50.872;4.312;2023-11-22T14:32:21;8.80;99.90
22112;DHT22;11222;50.872;4.312;2023-11-22T14:34:46;8.70;99.90
22112;DHT22;11222;50.872;4.312;2023-11-22T14:37:12;8.60;99.90
22112;DHT22;11222;50.872;4.312;2023-11-22T14:39:38;8.60;99.90
22112;DHT22;11222;50.872;4.312;2023-11-22T14:42:04;8.60;99.90
22112;DHT22;11222;50.872;4.312;2023-11-22T14:44:33;8.70;99.90
22112;DHT22;11222;50.872;4.312;2023-11-22T14:46:59;8.70;99.90
22112;DHT22;11222;50.872;4.312;2023-11-22T14:49:25;8.70;99.90
22112;DHT22;11222;50.872;4.312;2023-11-22T14:51:51;8.50;99.90
22112;DHT22;11222;50.872;4.312;2023-11-22T14:54:16;8.50;99.90
22112;DHT22;11222;50.872;4.312;2023-11-22T14:56:42;8.40;99.90
22112;DHT22;11222;50.872;4.312;2023-11-22T14:59:10;8.50;99.90
22112;DHT22;11222;50.872;4.312;2023-11-22T15:01:35;8.40;99.90
22112;DHT22;11222;50.872;4.312;2023-11-22T15:04:01;8.40;99.90
22112;DHT22;11222;50.872;4.312;2023-11-22T15:06:27;8.40;99.90
22112;DHT22;11222;50.872;4.312;2023-11-22T15:08:52;8.30;99.90
22112;DHT22;11222;50.872;4.312;2023-11-22T15:11:18;8.30;99.90
22112;DHT22;11222;50.872;4.312;2023-11-22T15:13:47;8.20;99.90
22112;DHT22;11222;50.872;4.312;2023-11-22T15:16:12;8.20;99.90
22112;DHT22;11222;50.872;4.312;2023-11-22T15:18:40;8.10;99.90
22112;DHT22;11222;50.872;4.312;2023-11-22T15:21:05;8.20;99.90
22112;DHT22;11222;50.872;4.312;2023-11-22T15:23:31;8.20;99.90
22112;DHT22;11222;50.872;4.312;2023-11-22T15:25:56;8.20;99.90
22112;DHT22;11222;50.872;4.312;2023-11-22T15:28:24;8.30;99.90
22112;DHT22;11222;50.872;4.312;2023-11-22T15:30:50;8.30;99.90
22112;DHT22;11222;50.872;4.312;2023-11-22T15:33:25;8.40;99.90
22112;DHT22;11222;50.872;4.312;2023-11-22T15:35:50;8.40;99.90
22112;DHT22;11222;50.872;4.312;2023-11-22T15:38:16;8.40;99.90
22112;DHT22;11222;50.872;4.312;2023-11-22T15:40:41;8.40;99.90
22112;DHT22;11222;50.872;4.312;2023-11-22T15:43:08;8.40;99.90
22112;DHT22;11222;50.872;4.312;2023-11-22T15:45:34;8.40;99.90